createdAt,value
2022-12-01T00:01:15.440Z,73.42
2022-12-01T00:03:43.003Z,73.60
2022-12-01T00:06:20.889Z,73.55
2022-12-01T00:09:09.643Z,74.16
2022-12-01T00:11:38.502Z,73.87
2022-12-01T00:14:06.115Z,73.72
2022-12-01T00:16:34.100Z,74.05
2022-12-01T00:19:01.462Z,74.06
2022-12-01T00:21:28.710Z,73.88
2022-12-01T00:23:57.638Z,74.57
2022-12-01T00:26:26.380Z,74.76
2022-12-01T00:28:55.968Z,74.89
2022-12-01T00:31:23.244Z,75.17
2022-12-01T00:33:50.464Z,74.94
2022-12-01T00:36:17.652Z,75.07
2022-12-01T00:38:44.978Z,75.05
2022-12-01T00:41:12.318Z,75.33
2022-12-01T00:43:39.878Z,75.64
2022-12-01T00:46:07.221Z,75.61
2022-12-01T00:48:34.410Z,75.75
2022-12-01T00:51:01.571Z,75.66
2022-12-01T00:53:29.001Z,76.32
2022-12-01T00:55:56.436Z,76.19
2022-12-01T00:58:24.617Z,76.49
2022-12-01T01:01:01.475Z,76.43
2022-12-01T01:03:30.623Z,76.25
2022-12-01T01:06:04.766Z,76.06
2022-12-01T01:08:32.526Z,76.42
2022-12-01T01:11:01.578Z,76.23
2022-12-01T01:13:29.353Z,75.93
2022-12-01T01:16:01.328Z,76.21
2022-12-01T01:18:28.852Z,76.36
2022-12-01T01:21:04.802Z,76.99
2022-12-01T01:23:32.112Z,77.04
2022-12-01T01:26:08.889Z,77.67
2022-12-01T01:28:36.475Z,77.28
2022-12-01T01:31:08.114Z,77.62
2022-12-01T01:33:35.615Z,77.58
2022-12-01T01:36:03.920Z,77.04
2022-12-01T01:38:32.226Z,76.83
2022-12-01T01:40:59.523Z,77.11
2022-12-01T01:43:49.362Z,77.15
2022-12-01T01:46:19.618Z,77.40
2022-12-01T01:48:51.350Z,77.31
2022-12-01T01:51:23.136Z,78.51
2022-12-01T01:53:54.250Z,78.90
2022-12-01T01:56:21.472Z,79.74
2022-12-01T01:58:49.179Z,79.63
2022-12-01T02:01:16.382Z,80.04
2022-12-01T02:03:45.529Z,80.22
2022-12-01T02:06:13.688Z,80.46
2022-12-01T02:08:40.837Z,80.71
2022-12-01T02:11:28.046Z,80.84
2022-12-01T02:14:28.600Z,80.64
2022-12-01T02:17:11.216Z,80.41
2022-12-01T02:20:14.165Z,80.59
2022-12-01T02:22:56.499Z,80.93
2022-12-01T02:25:48.842Z,80.77
2022-12-01T02:28:15.931Z,81.08
2022-12-01T02:30:49.554Z,80.96
2022-12-01T02:33:25.672Z,81.78
2022-12-01T02:36:16.487Z,81.54
2022-12-01T02:38:54.792Z,81.62
2022-12-01T02:41:29.646Z,82.08
2022-12-01T02:44:08.373Z,81.94
2022-12-01T02:46:57.711Z,81.69
2022-12-01T02:49:31.532Z,81.88
2022-12-01T02:51:59.146Z,82.28
2022-12-01T02:54:29.950Z,82.27
2022-12-01T02:56:57.032Z,82.98
2022-12-01T02:59:24.145Z,83.04
2022-12-01T03:02:11.843Z,82.70
2022-12-01T03:05:04.827Z,82.27
2022-12-01T03:07:55.234Z,82.42
2022-12-01T03:10:44.055Z,82.95
2022-12-01T03:13:38.806Z,82.95
2022-12-01T03:16:21.122Z,82.48
2022-12-01T03:18:56.576Z,82.46
2022-12-01T03:21:27.099Z,82.63
2022-12-01T03:24:12.074Z,82.71
2022-12-01T03:26:41.278Z,82.10
2022-12-01T03:29:11.329Z,82.43
2022-12-01T03:31:43.795Z,82.68
2022-12-01T03:34:18.328Z,82.26
2022-12-01T03:36:52.685Z,82.37
2022-12-01T03:39:26.596Z,82.34
2022-12-01T03:41:58.898Z,82.27
2022-12-01T03:44:31.395Z,82.73
2022-12-01T03:47:06.871Z,82.44
2022-12-01T03:49:34.299Z,82.24
2022-12-01T03:52:14.269Z,82.34
2022-12-01T03:55:02.484Z,81.49
2022-12-01T03:57:32.213Z,81.80
2022-12-01T03:59:59.456Z,81.98
2022-12-01T04:02:28.176Z,81.38
2022-12-01T04:04:55.384Z,81.83
2022-12-01T04:07:23.472Z,81.45
2022-12-01T04:09:51.148Z,81.84
2022-12-01T04:12:30.570Z,81.79
2022-12-01T04:14:58.450Z,81.68
2022-12-01T04:17:26.282Z,81.92
2022-12-01T04:19:53.881Z,82.33
2022-12-01T04:22:21.481Z,82.01
2022-12-01T04:24:48.913Z,81.76
2022-12-01T04:27:16.088Z,81.59
2022-12-01T04:29:43.379Z,81.29
2022-12-01T04:32:10.592Z,81.55
2022-12-01T04:34:37.657Z,81.46
2022-12-01T04:37:05.953Z,81.94
2022-12-01T04:39:34.294Z,82.02
2022-12-01T04:42:01.800Z,82.08
2022-12-01T04:44:34.312Z,81.82
2022-12-01T04:47:03.279Z,81.47
2022-12-01T04:49:30.787Z,81.85
2022-12-01T04:51:58.274Z,81.79
2022-12-01T04:54:25.652Z,81.40
2022-12-01T04:56:52.854Z,81.54
2022-12-01T04:59:19.952Z,81.12
2022-12-01T05:01:48.245Z,81.59
2022-12-01T05:04:15.643Z,81.39
2022-12-01T05:06:43.348Z,81.26
2022-12-01T05:09:17.116Z,80.98
2022-12-01T05:11:45.081Z,81.49
2022-12-01T05:14:12.266Z,81.85
2022-12-01T05:16:39.458Z,81.62
2022-12-01T05:19:25.478Z,81.78
2022-12-01T05:21:52.802Z,81.56
2022-12-01T05:24:20.840Z,81.95
2022-12-01T05:26:48.187Z,81.71
2022-12-01T05:29:15.377Z,81.92
2022-12-01T05:31:42.630Z,81.52
2022-12-01T05:34:09.899Z,81.70
2022-12-01T05:36:36.964Z,81.59
2022-12-01T05:39:05.029Z,81.89
2022-12-01T05:41:32.313Z,82.22
2022-12-01T05:43:59.414Z,81.78
2022-12-01T05:46:26.706Z,81.62
2022-12-01T05:48:53.974Z,81.89
2022-12-01T05:51:21.263Z,81.53
2022-12-01T05:53:48.396Z,81.55
2022-12-01T05:56:15.560Z,81.57
2022-12-01T05:58:42.724Z,81.55
2022-12-01T06:01:09.948Z,81.57
2022-12-01T06:03:37.115Z,82.10
2022-12-01T06:06:04.434Z,82.17
2022-12-01T06:08:31.584Z,81.59
2022-12-01T06:10:58.691Z,81.75
2022-12-01T06:13:26.102Z,81.58
2022-12-01T06:15:57.658Z,81.60
2022-12-01T06:18:26.197Z,81.15
2022-12-01T06:20:53.388Z,81.48
2022-12-01T06:23:20.701Z,81.09
2022-12-01T06:25:47.990Z,81.09
2022-12-01T06:28:15.336Z,81.31
2022-12-01T06:30:42.647Z,81.39
2022-12-01T06:33:09.712Z,81.31
2022-12-01T06:35:37.697Z,81.00
2022-12-01T06:38:05.086Z,80.62
2022-12-01T06:40:32.537Z,80.61
2022-12-01T06:43:02.158Z,80.93
2022-12-01T06:45:30.828Z,81.05
2022-12-01T06:47:58.164Z,80.58
2022-12-01T06:50:25.778Z,80.91
2022-12-01T06:52:53.132Z,80.47
2022-12-01T06:55:20.221Z,80.64
2022-12-01T06:57:47.587Z,80.29
2022-12-01T07:00:15.445Z,80.22
2022-12-01T07:02:42.813Z,80.44
2022-12-01T07:05:10.208Z,80.07
2022-12-01T07:07:39.179Z,80.75
2022-12-01T07:10:07.643Z,80.72
2022-12-01T07:12:34.957Z,80.86
2022-12-01T07:15:02.466Z,80.65
2022-12-01T07:17:29.845Z,80.67
2022-12-01T07:19:57.271Z,80.90
2022-12-01T07:22:28.117Z,80.21
2022-12-01T07:24:58.225Z,80.96
2022-12-01T07:27:25.388Z,80.35
2022-12-01T07:29:52.719Z,80.69
2022-12-01T07:32:19.991Z,80.55
2022-12-01T07:34:47.371Z,80.52
2022-12-01T07:37:14.506Z,80.56
2022-12-01T07:39:41.643Z,80.48
2022-12-01T07:42:08.829Z,80.63
2022-12-01T07:44:36.037Z,80.18
2022-12-01T07:47:03.293Z,80.31
2022-12-01T07:49:30.669Z,80.51
2022-12-01T07:51:57.868Z,80.82
2022-12-01T07:54:25.776Z,80.47
2022-12-01T07:56:53.139Z,80.83
2022-12-01T07:59:20.505Z,80.81
2022-12-01T08:01:47.810Z,80.85
2022-12-01T08:04:15.103Z,80.61
2022-12-01T08:06:42.286Z,80.92
2022-12-01T08:09:09.491Z,80.46
2022-12-01T08:11:36.648Z,80.22
2022-12-01T08:14:03.824Z,80.23
2022-12-01T08:16:31.487Z,80.87
2022-12-01T08:18:58.742Z,80.64
2022-12-01T08:21:25.999Z,80.94
2022-12-01T08:23:54.947Z,80.70
2022-12-01T08:26:23.252Z,80.50
2022-12-01T08:28:50.381Z,80.73
2022-12-01T08:31:20.513Z,80.26
2022-12-01T08:33:48.493Z,80.33
2022-12-01T08:36:15.811Z,80.16
2022-12-01T08:38:44.955Z,80.50
2022-12-01T08:41:12.991Z,80.53
2022-12-01T08:43:57.071Z,80.49
2022-12-01T08:46:27.180Z,80.07
2022-12-01T08:48:57.259Z,80.35
2022-12-01T08:51:25.199Z,80.52
2022-12-01T08:53:52.338Z,80.37
2022-12-01T08:56:28.864Z,80.27
2022-12-01T08:58:56.321Z,80.50
2022-12-01T09:01:23.531Z,80.46
2022-12-01T09:04:05.224Z,80.07
2022-12-01T09:06:35.405Z,79.64
2022-12-01T09:09:02.555Z,79.93
2022-12-01T09:11:29.712Z,79.86
2022-12-01T09:13:59.068Z,79.12
2022-12-01T09:16:26.289Z,79.22
2022-12-01T09:18:53.464Z,79.28
2022-12-01T09:21:24.033Z,79.29
2022-12-01T09:23:51.409Z,78.75
2022-12-01T09:26:19.657Z,79.00
2022-12-01T09:28:48.052Z,79.08
2022-12-01T09:31:16.562Z,78.89
2022-12-01T09:33:44.174Z,78.49
2022-12-01T09:36:11.391Z,78.39
2022-12-01T09:38:38.993Z,78.84
2022-12-01T09:41:09.368Z,78.54
2022-12-01T09:43:42.099Z,78.94
2022-12-01T09:46:17.170Z,78.52
2022-12-01T09:48:47.180Z,78.54
2022-12-01T09:51:14.998Z,78.48
2022-12-01T09:53:43.094Z,78.47
2022-12-01T09:56:22.490Z,77.91
2022-12-01T09:58:52.836Z,78.13
2022-12-01T10:01:30.700Z,77.83
2022-12-01T10:03:59.925Z,77.93
2022-12-01T10:06:38.031Z,77.63
2022-12-01T10:09:07.916Z,78.05
2022-12-01T10:11:36.868Z,78.29
2022-12-01T10:14:04.629Z,78.81
2022-12-01T10:16:45.899Z,79.09
2022-12-01T10:19:17.992Z,78.98
2022-12-01T10:22:01.226Z,78.85
2022-12-01T10:24:43.959Z,78.65
2022-12-01T10:27:35.369Z,78.87
2022-12-01T10:30:09.968Z,78.92
2022-12-01T10:32:53.945Z,78.77
2022-12-01T10:35:23.922Z,78.86
2022-12-01T10:37:56.608Z,78.89
2022-12-01T10:40:24.411Z,78.23
2022-12-01T10:42:52.035Z,78.61
2022-12-01T10:45:31.985Z,78.78
2022-12-01T10:48:20.179Z,78.85
2022-12-01T10:50:52.180Z,78.01
2022-12-01T10:53:22.147Z,78.25
2022-12-01T10:56:13.556Z,77.88
2022-12-01T10:58:51.388Z,77.98
2022-12-01T11:01:31.951Z,78.11
2022-12-01T11:04:06.420Z,78.26
2022-12-01T11:06:34.636Z,78.41
2022-12-01T11:09:04.800Z,78.31
2022-12-01T11:11:31.806Z,78.37
2022-12-01T11:14:02.006Z,78.28
2022-12-01T11:16:43.743Z,78.13
2022-12-01T11:19:32.485Z,78.61
2022-12-01T11:22:19.670Z,78.44
2022-12-01T11:25:05.815Z,78.28
2022-12-01T11:27:36.546Z,78.02
2022-12-01T11:30:20.128Z,77.83
2022-12-01T11:32:53.175Z,77.79
2022-12-01T11:35:22.171Z,77.65
2022-12-01T11:38:27.287Z,77.62
2022-12-01T11:40:47.269Z,77.94
2022-12-01T11:43:35.205Z,78.19
2022-12-01T11:46:05.001Z,78.23
2022-12-01T11:48:36.611Z,78.29
2022-12-01T11:51:18.860Z,78.66
2022-12-01T11:53:46.662Z,78.39
2022-12-01T11:56:29.105Z,78.60
2022-12-01T11:59:00.622Z,78.31
2022-12-01T12:01:44.195Z,78.27
2022-12-01T12:04:52.978Z,78.25
2022-12-01T12:07:29.582Z,78.12
2022-12-01T12:10:11.654Z,77.75
2022-12-01T12:13:09.992Z,77.70
2022-12-01T12:15:56.758Z,77.95
2022-12-01T12:18:32.517Z,78.25
2022-12-01T12:21:25.725Z,78.13
2022-12-01T12:23:52.912Z,78.04
2022-12-01T12:26:22.749Z,78.26
2022-12-01T12:29:15.167Z,78.26
2022-12-01T12:32:00.691Z,78.24
2022-12-01T12:34:37.463Z,78.32
2022-12-01T12:37:20.474Z,77.90
2022-12-01T12:40:22.718Z,78.04
2022-12-01T12:43:14.555Z,77.80
2022-12-01T12:46:00.720Z,77.52
2022-12-01T12:49:04.003Z,77.58
2022-12-01T12:51:37.747Z,77.43
2022-12-01T12:54:22.055Z,77.44
2022-12-01T12:56:51.790Z,77.33
2022-12-01T12:59:27.143Z,77.53
2022-12-01T13:02:16.244Z,77.53
2022-12-01T13:04:56.572Z,77.12
2022-12-01T13:07:37.319Z,77.58
2022-12-01T13:10:15.008Z,78.02
2022-12-01T13:12:49.655Z,77.55
2022-12-01T13:15:19.873Z,77.63
2022-12-01T13:17:54.489Z,77.57
2022-12-01T13:20:27.677Z,77.75
2022-12-01T13:22:56.372Z,77.78
2022-12-01T13:25:28.371Z,77.72
2022-12-01T13:27:56.198Z,78.10
2022-12-01T13:30:25.461Z,77.79
2022-12-01T13:33:04.217Z,77.71
2022-12-01T13:35:36.593Z,78.25
2022-12-01T13:38:29.966Z,77.98
2022-12-01T13:41:11.836Z,77.85
2022-12-01T13:43:49.475Z,77.92
2022-12-01T13:46:43.712Z,77.84
2022-12-01T13:49:43.466Z,77.91
2022-12-01T13:52:22.864Z,77.74
2022-12-01T13:55:08.309Z,77.86
2022-12-01T13:57:37.885Z,77.79
2022-12-01T14:00:20.017Z,77.98
2022-12-01T14:03:13.229Z,77.94
2022-12-01T14:05:40.373Z,77.82
2022-12-01T14:08:22.633Z,77.73
2022-12-01T14:11:18.579Z,77.65
2022-12-01T14:13:55.166Z,77.98
2022-12-01T14:16:22.984Z,77.43
2022-12-01T14:18:57.727Z,77.67
2022-12-01T14:21:42.587Z,77.29
2022-12-01T14:24:32.199Z,77.57
2022-12-01T14:26:59.528Z,77.42
2022-12-01T14:29:42.456Z,77.76
2022-12-01T14:32:09.525Z,77.88
2022-12-01T14:34:38.134Z,77.36
2022-12-01T14:37:07.151Z,77.62
2022-12-01T14:39:36.530Z,77.81
2022-12-01T14:42:41.165Z,77.69
2022-12-01T14:45:11.922Z,78.14
2022-12-01T14:47:49.610Z,78.07
2022-12-01T14:50:24.896Z,77.95
2022-12-01T14:53:05.326Z,77.55
2022-12-01T14:55:41.777Z,77.96
2022-12-01T14:58:16.508Z,78.37
2022-12-01T15:01:06.580Z,78.11
2022-12-01T15:03:42.862Z,77.97
2022-12-01T15:06:10.494Z,78.15
2022-12-01T15:08:43.466Z,78.48
2022-12-01T15:11:22.705Z,77.91
2022-12-01T15:13:55.193Z,77.87
2022-12-01T15:16:24.890Z,77.89
2022-12-01T15:18:52.355Z,78.15
2022-12-01T15:21:28.388Z,78.38
2022-12-01T15:24:00.979Z,78.57
2022-12-01T15:26:31.106Z,78.19
2022-12-01T15:29:19.277Z,78.68
2022-12-01T15:31:53.418Z,78.19
2022-12-01T15:34:41.745Z,78.46
2022-12-01T15:37:19.922Z,78.28
2022-12-01T15:40:00.291Z,78.78
2022-12-01T15:42:39.557Z,78.41
2022-12-01T15:45:17.703Z,78.36
2022-12-01T15:47:48.782Z,78.61
2022-12-01T15:50:33.358Z,79.25
2022-12-01T15:53:03.283Z,79.12
2022-12-01T15:55:33.276Z,79.04
2022-12-01T15:58:01.459Z,78.72
2022-12-01T16:00:28.600Z,79.15
2022-12-01T16:02:57.597Z,78.41
2022-12-01T16:05:30.707Z,78.78
2022-12-01T16:08:13.063Z,78.84
2022-12-01T16:10:40.522Z,79.19
2022-12-01T16:13:41.884Z,78.88
2022-12-01T16:16:37.433Z,78.72
2022-12-01T16:19:07.495Z,79.03
2022-12-01T16:21:52.533Z,78.90
2022-12-01T16:24:30.572Z,79.48
2022-12-01T16:27:03.655Z,79.61
2022-12-01T16:29:34.573Z,79.67
2022-12-01T16:32:20.812Z,79.70
2022-12-01T16:34:50.243Z,79.87
2022-12-01T16:37:17.651Z,79.76
2022-12-01T16:39:45.024Z,79.34
2022-12-01T16:42:16.558Z,79.49
2022-12-01T16:44:45.656Z,79.79
2022-12-01T16:47:18.388Z,79.94
2022-12-01T16:49:45.598Z,79.86
2022-12-01T16:55:00.057Z,79.91
2022-12-01T16:57:27.186Z,79.63
2022-12-01T16:59:54.289Z,79.67
2022-12-01T17:02:21.575Z,79.52
2022-12-01T17:04:49.204Z,79.83
2022-12-01T17:07:16.686Z,79.95
2022-12-01T17:09:43.899Z,79.80
2022-12-01T17:12:11.055Z,80.02
2022-12-01T17:14:38.316Z,79.95
2022-12-01T17:17:05.518Z,80.55
2022-12-01T17:19:32.613Z,80.10
2022-12-01T17:21:59.987Z,80.12
2022-12-01T17:24:27.129Z,80.13
2022-12-01T17:26:54.260Z,80.56
2022-12-01T17:29:21.381Z,80.69
2022-12-01T17:31:48.517Z,80.65
2022-12-01T17:34:15.676Z,80.72
2022-12-01T17:36:42.848Z,80.98
2022-12-01T17:39:09.960Z,80.68
2022-12-01T17:41:37.219Z,80.65
2022-12-01T17:44:04.972Z,80.45
2022-12-01T17:46:32.263Z,81.09
2022-12-01T17:48:59.442Z,80.74
2022-12-01T17:51:26.577Z,81.11
2022-12-01T17:53:53.893Z,80.85
2022-12-01T17:56:21.133Z,81.06
2022-12-01T17:58:50.476Z,80.98
2022-12-01T18:01:19.578Z,81.12
2022-12-01T18:03:47.543Z,81.01
2022-12-01T18:06:16.276Z,81.39
2022-12-01T18:08:43.435Z,81.26
2022-12-01T18:11:13.942Z,81.24
2022-12-01T18:13:47.153Z,81.09
2022-12-01T18:16:19.682Z,81.77
2022-12-01T18:18:47.136Z,81.46
2022-12-01T18:21:15.907Z,81.57
2022-12-01T18:23:43.283Z,82.22
2022-12-01T18:26:15.781Z,81.75
2022-12-01T18:28:43.967Z,82.31
2022-12-01T18:31:13.686Z,81.75
2022-12-01T18:33:42.766Z,82.26
2022-12-01T18:36:13.212Z,81.91
2022-12-01T18:38:40.677Z,82.22
2022-12-01T18:41:08.628Z,82.08
2022-12-01T18:43:36.235Z,81.82
2022-12-01T18:46:04.846Z,81.51
2022-12-01T18:48:32.867Z,81.89
2022-12-01T18:51:04.091Z,81.53
2022-12-01T18:53:31.623Z,81.59
2022-12-01T18:56:06.348Z,82.10
2022-12-01T18:58:33.840Z,82.49
2022-12-01T19:01:01.460Z,82.71
2022-12-01T19:03:30.205Z,82.61
2022-12-01T19:05:57.919Z,82.67
2022-12-01T19:08:25.078Z,82.47
2022-12-01T19:11:02.464Z,82.63
2022-12-01T19:13:30.727Z,82.50
2022-12-01T19:15:58.099Z,83.02
2022-12-01T19:18:25.209Z,82.58
2022-12-01T19:20:52.436Z,83.33
2022-12-01T19:23:19.671Z,83.44
2022-12-01T19:25:46.798Z,83.03
2022-12-01T19:28:13.898Z,83.63
2022-12-01T19:30:45.347Z,83.18
2022-12-01T19:33:15.380Z,83.53
2022-12-01T19:35:42.596Z,83.03
2022-12-01T19:38:09.686Z,82.95
2022-12-01T19:40:38.496Z,83.99
2022-12-01T19:43:05.620Z,83.54
2022-12-01T19:45:33.692Z,83.37
2022-12-01T19:48:00.961Z,83.39
2022-12-01T19:50:28.081Z,83.48
2022-12-01T19:52:55.179Z,83.81
2022-12-01T19:55:22.271Z,83.84
2022-12-01T19:57:52.329Z,83.33
2022-12-01T20:00:21.988Z,83.43
2022-12-01T20:02:49.761Z,83.46
2022-12-01T20:05:17.052Z,83.40
2022-12-01T20:07:44.268Z,83.38
2022-12-01T20:10:11.550Z,83.12
2022-12-01T20:12:38.885Z,83.41
2022-12-01T20:15:08.676Z,83.39
2022-12-01T20:17:36.754Z,83.44
2022-12-01T20:20:05.072Z,83.71
2022-12-01T20:22:36.030Z,83.43
2022-12-01T20:25:04.440Z,83.53
2022-12-01T20:27:31.925Z,83.36
2022-12-01T20:29:59.197Z,83.67
2022-12-01T20:32:26.363Z,82.91
2022-12-01T20:34:53.675Z,83.34
2022-12-01T20:37:20.934Z,82.79
2022-12-01T20:39:48.076Z,82.49
2022-12-01T20:42:15.215Z,82.99
2022-12-01T20:44:42.369Z,82.68
2022-12-01T20:47:09.492Z,83.02
2022-12-01T20:49:36.701Z,83.59
2022-12-01T20:52:03.968Z,83.36
2022-12-01T20:54:31.487Z,82.78
2022-12-01T20:56:58.990Z,82.85
2022-12-01T20:59:26.641Z,82.41
2022-12-01T21:01:54.436Z,82.90
2022-12-01T21:04:21.673Z,82.63
2022-12-01T21:06:50.231Z,82.82
2022-12-01T21:09:18.039Z,82.93
2022-12-01T21:12:05.750Z,82.38
2022-12-01T21:14:41.710Z,82.20
2022-12-01T21:17:29.268Z,82.05
2022-12-01T21:20:05.256Z,82.88
2022-12-01T21:22:32.494Z,82.86
2022-12-01T21:25:10.606Z,82.30
2022-12-01T21:27:37.998Z,82.54
2022-12-01T21:30:15.981Z,82.24
2022-12-01T21:32:44.203Z,82.36
2022-12-01T21:35:20.429Z,83.10
2022-12-01T21:37:48.690Z,83.20
2022-12-01T21:40:20.395Z,82.53
2022-12-01T21:42:47.811Z,82.91
2022-12-01T21:45:32.044Z,82.47
2022-12-01T21:48:12.408Z,82.32
2022-12-01T21:50:39.513Z,82.43
2022-12-01T21:53:19.335Z,82.94
2022-12-01T21:55:47.716Z,83.08
2022-12-01T21:58:24.030Z,83.30
2022-12-01T22:00:55.984Z,82.85
2022-12-01T22:03:26.276Z,82.48
2022-12-01T22:06:32.969Z,82.95
2022-12-01T22:09:02.121Z,82.96
2022-12-01T22:11:30.570Z,82.88
2022-12-01T22:14:15.519Z,83.01
2022-12-01T22:16:56.985Z,82.92
2022-12-01T22:19:31.324Z,82.96
2022-12-01T22:22:10.550Z,82.46
2022-12-01T22:24:39.908Z,82.56
2022-12-01T22:27:27.230Z,82.67
2022-12-01T22:29:58.419Z,82.58
2022-12-01T22:32:32.930Z,83.13
2022-12-01T22:35:28.991Z,83.13
2022-12-01T22:38:11.301Z,83.14
2022-12-01T22:40:53.672Z,83.09
2022-12-01T22:43:26.945Z,82.75
2022-12-01T22:46:00.272Z,82.35
2022-12-01T22:48:27.325Z,83.42
2022-12-01T22:50:54.876Z,83.11
2022-12-01T22:53:28.394Z,83.32
2022-12-01T22:55:57.074Z,83.39
2022-12-01T22:58:28.496Z,83.17
2022-12-01T23:00:57.788Z,83.64
2022-12-01T23:03:26.227Z,83.19
2022-12-01T23:05:56.525Z,83.26
2022-12-01T23:08:24.188Z,83.65
2022-12-01T23:10:51.557Z,83.66
2022-12-01T23:13:23.674Z,83.95
2022-12-01T23:15:53.645Z,84.17
2022-12-01T23:18:22.486Z,83.87
2022-12-01T23:20:59.969Z,83.84
2022-12-01T23:23:40.201Z,83.51
2022-12-01T23:26:08.345Z,83.87
2022-12-01T23:28:37.075Z,84.09
2022-12-01T23:31:04.245Z,83.27
2022-12-01T23:33:32.815Z,83.44
2022-12-01T23:36:12.286Z,83.68
2022-12-01T23:38:42.237Z,83.63
2022-12-01T23:41:33.026Z,83.60
2022-12-01T23:44:04.054Z,83.97
2022-12-01T23:46:32.500Z,83.49
2022-12-01T23:49:02.049Z,83.52
2022-12-01T23:51:40.451Z,83.35
2022-12-01T23:54:14.565Z,83.51
2022-12-01T23:56:41.745Z,83.27
2022-12-01T23:59:13.389Z,82.96
